Tri-State/Milton J. Ferguson Field
KHTS : now visible

Airfield :











YOU CAN JOIN US ON...

 
LOGIN :

Register | Disclaimer

   EN    FR    IT 

 









Legend :    VFR   Marginal VFR   IFR   Intensive IFR   Very Intensive IFR
Visi :
Ceiling :
>= 8 km
>= 3000ft
5 to 8 km
1000 to 3000 ft
1500m to 5 km
500 to 1000 ft
800 to 1500m
200 to 500 ft
< 800m
< 200 ft
Symbols :   Thunderstorms  Fog  Heavy snow  Heavy precipitations  Wind > 20 kt






- Airport Elevation : 828 ft
- IATA code : HTS


KHTS - Tri-State/Milton J. Ferguson Field

CURRENT METAR :
  • 221451Z 35006KT 10SM SCT055 06/00 A3017 RMK AO2 SLP220 T00560000 51007

EXPIRED METARs :
  • 221351Z 00000KT 10SM SCT046 OVC055 03/M01 A3017 RMK AO2 SLP221 T00331006
  • 221251Z 21005KT 10SM BKN049 BKN060 OVC100 02/M01 A3016 RMK AO2 SLP218 T00171011

TAF KHTS
Valid from the 22 at 12:00 until the 23 at 12:00 UTC


221138Z 2212/2312 27006KT P6SM VCSH OVC050
FM221500 27008G20KT P6SM VCSH OVC040
TEMPO 2217/2221 5SM SHRA BKN028
FM222100 28010G18KT P6SM BKN060
FM222300 28008KT P6SM SCT120
FM230300 00000KT P6SM SKC
KZID FIR / North America



MET'MAP, your aeronautical weather chart ! - Copyright ORBIFLY December 2007 - Disclaimer

ORBIFLY MET'MAP TEAM :

Programming & Development : Alexandra Zaïnal
Concept & original design : Baudouin d'Aumeries
Assistance for programming : Marc-Olivier Méhu
Technical & hardware support : Manuel Goepfert

Contact : metmap@orbifly.com




SOURCES & CREDITS :

   NOAA       Earth
Advisory